»·PEaware :: N42PD KBLI-C72

N42PD :: KBLI-C72

FLIGHT INFORMATION

Flight Status: Arrived
Operator: Privately registered:
United States
More flights under this callsign
Pilot: Anonymous 13704 (13704)
Aircraft: CIRRUS SR-22 TURBO
(S22T)
More flights by this aircraft type
Origin: KBLI Bellingham Intl
United States
Destination: C72 Cross Winds
United States
More flights between these airports :: More routes between these airports
Route:
File this flight plan on PilotEdge
Remarks:
Altitude:
(Current/Filed)
13,500ft
Speed:
(Current/Filed)
170kts
Departed: 01-Oct-23 01:17 PM
Arrived: 01-Oct-23 02:36 PM
Distance/Time
Traveled:
206nm/1:19
Distance/Time
To Go:
Arrived

Flight Plot

Page will automatically refresh every two minutes.

Flight plan parsing failed; only flown route is shown


Map Options




Map Legend


Flown Route
Filed Route
Departure Airport
Arrival Airport
Navaid (VOR, NDB)
Fix

Horizontal Profiles

Position Reports

Time Latitude Longitude Heading Altitude Ground
Speed
01-Oct-23 13:10 48.790780 -122.535000 268 155ft 0kts
01-Oct-23 13:11 48.790780 -122.535000 268 155ft 0kts
01-Oct-23 13:12 48.790780 -122.535000 268 155ft 0kts
01-Oct-23 13:13 48.790780 -122.535000 268 155ft 0kts
01-Oct-23 13:14 48.790780 -122.535000 268 155ft 0kts
01-Oct-23 13:15 48.789824 -122.535815 181 156ft 10kts
01-Oct-23 13:16 48.784512 -122.535777 188 167ft 19kts
01-Oct-23 13:17 48.796408 -122.536744 4 471ft 106kts
01-Oct-23 13:18 48.827093 -122.545077 338 1826ft 120kts
01-Oct-23 13:19 48.815619 -122.575639 173 3196ft 126kts
01-Oct-23 13:20 48.780487 -122.578331 176 4517ft 127kts
01-Oct-23 13:21 48.744603 -122.577940 175 5837ft 129kts
01-Oct-23 13:22 48.708609 -122.577913 175 7138ft 130kts
01-Oct-23 13:23 48.671384 -122.577899 175 8415ft 135kts
01-Oct-23 13:24 48.638808 -122.566918 100 9679ft 134kts
01-Oct-23 13:25 48.633364 -122.510825 86 10910ft 138kts
01-Oct-23 13:26 48.627227 -122.451841 89 12215ft 143kts
01-Oct-23 13:27 48.620664 -122.391532 88 13436ft 151kts
01-Oct-23 13:28 48.612499 -122.316731 94 13414ft 195kts
01-Oct-23 13:29 48.603406 -122.234442 93 13427ft 200kts
01-Oct-23 13:30 48.594160 -122.150495 92 13428ft 201kts
01-Oct-23 13:31 48.585092 -122.070433 91 13431ft 184kts
01-Oct-23 13:32 48.576469 -121.994329 92 13412ft 180kts
01-Oct-23 13:32 48.569466 -121.932317 92 13427ft 179kts
01-Oct-23 13:34 48.559571 -121.845201 91 13414ft 178kts
01-Oct-23 13:35 48.551449 -121.771476 92 13414ft 177kts
01-Oct-23 13:36 48.543141 -121.698363 91 13421ft 176kts
01-Oct-23 13:36 48.536096 -121.636935 92 13420ft 177kts
01-Oct-23 13:37 48.527585 -121.564110 92 13421ft 174kts
01-Oct-23 13:38 48.519164 -121.491620 91 13452ft 174kts
01-Oct-23 13:40 48.509218 -121.406899 92 13430ft 174kts
01-Oct-23 13:41 48.500715 -121.334573 93 13449ft 175kts
01-Oct-23 13:41 48.493499 -121.274146 92 13456ft 174kts
01-Oct-23 13:42 48.484855 -121.201688 91 13471ft 175kts
01-Oct-23 13:43 48.476143 -121.129138 92 13475ft 175kts
01-Oct-23 13:44 48.467357 -121.056450 92 13468ft 175kts
01-Oct-23 13:45 48.458561 -120.984055 92 13467ft 174kts
01-Oct-23 13:46 48.449773 -120.912037 92 13476ft 175kts
01-Oct-23 13:47 48.440893 -120.839707 92 13467ft 174kts
01-Oct-23 13:48 48.432031 -120.767869 93 13459ft 173kts
01-Oct-23 13:49 48.423141 -120.696152 92 13459ft 174kts
01-Oct-23 13:50 48.414087 -120.623447 93 13445ft 176kts
01-Oct-23 13:51 48.404941 -120.550387 92 13442ft 178kts
01-Oct-23 13:52 48.395813 -120.477844 99 13449ft 168kts
01-Oct-23 13:53 48.387534 -120.409758 104 13447ft 168kts
01-Oct-23 13:54 48.378226 -120.336045 100 13471ft 187kts
01-Oct-23 13:55 48.367954 -120.257680 95 13486ft 191kts
01-Oct-23 13:56 48.357764 -120.180163 94 13485ft 185kts
01-Oct-23 13:57 48.348041 -120.104647 93 13603ft 187kts
01-Oct-23 13:58 48.337903 -120.026545 94 13579ft 191kts
01-Oct-23 13:59 48.327596 -119.947995 94 13594ft 192kts
01-Oct-23 14:00 48.317173 -119.868849 94 13563ft 192kts
01-Oct-23 14:01 48.306734 -119.790021 94 13575ft 192kts
01-Oct-23 14:02 48.296114 -119.710737 94 13568ft 191kts
01-Oct-23 14:03 48.285570 -119.631919 93 13570ft 191kts
01-Oct-23 14:04 48.274991 -119.552334 101 13636ft 197kts
01-Oct-23 14:05 48.264409 -119.471396 104 13695ft 189kts
01-Oct-23 14:06 48.254344 -119.397529 99 13740ft 173kts
01-Oct-23 14:07 48.244405 -119.327058 96 13782ft 172kts
01-Oct-23 14:08 48.234394 -119.255022 96 13807ft 178kts
01-Oct-23 14:09 48.224162 -119.181151 95 13811ft 182kts
01-Oct-23 14:10 48.213754 -119.106398 96 13804ft 182kts
01-Oct-23 14:11 48.203464 -119.032384 99 13797ft 177kts
01-Oct-23 14:12 48.193350 -118.958821 103 13412ft 192kts
01-Oct-23 14:13 48.181787 -118.876481 100 12354ft 212kts
01-Oct-23 14:14 48.169069 -118.788171 98 11336ft 215kts
01-Oct-23 14:15 48.156636 -118.701865 98 10333ft 207kts
01-Oct-23 14:16 48.144702 -118.618721 98 9353ft 201kts
01-Oct-23 14:17 48.132936 -118.536903 98 8400ft 199kts
01-Oct-23 14:18 48.121270 -118.455973 98 7580ft 190kts
01-Oct-23 14:19 48.110482 -118.382637 96 7570ft 175kts
01-Oct-23 14:20 48.100037 -118.311002 98 7545ft 174kts
01-Oct-23 14:21 48.089260 -118.239978 98 7543ft 175kts
01-Oct-23 14:22 48.078469 -118.168744 97 7551ft 173kts
01-Oct-23 14:23 48.067884 -118.097217 98 7291ft 184kts
01-Oct-23 14:24 48.056266 -118.019533 98 6264ft 193kts
01-Oct-23 14:25 48.044456 -117.940699 98 5198ft 192kts
01-Oct-23 14:26 48.033266 -117.866588 97 4899ft 171kts
01-Oct-23 14:27 48.022821 -117.797371 98 4887ft 169kts
01-Oct-23 14:28 48.012410 -117.728991 99 4903ft 168kts
01-Oct-23 14:29 48.001630 -117.658085 99 4450ft 175kts
01-Oct-23 14:30 47.989542 -117.587360 120 4009ft 178kts
01-Oct-23 14:31 47.965718 -117.529395 117 3576ft 124kts
01-Oct-23 14:32 47.977116 -117.511400 316 3020ft 102kts
01-Oct-23 14:33 47.996109 -117.537974 276 2682ft 95kts
01-Oct-23 14:34 47.979178 -117.527889 138 2208ft 60kts
01-Oct-23 14:35 47.976782 -117.525334 143 2208ft 0kts
01-Oct-23 14:36 47.976782 -117.525334 143 2208ft 0kts

Navigation Log

Ident Type
Flight plan parsing failed, navigation log unavailable